Time;durP1;ratioP1;P1;durP2;ratioP2;P2;SDS_P1;SDS_P2;PMS_P1;PMS_P2;Temp;Humidity;BMP_temperature;BMP_pressure;BME280_temperature;BME280_humidity;BME280_pressure;Samples;Min_cycle;Max_cycle;Signal;HPM_P1;HPM_P2
2021/12/14 00:00:25;;;;;;;27.00;7.90;;;4.80;99.90;;;;;;5049229;28;20029;-68
2021/12/14 00:02:52;;;;;;;23.63;6.85;;;4.70;99.90;;;;;;5034434;28;20021;-67
2021/12/14 00:05:19;;;;;;;32.90;8.93;;;4.70;99.90;;;;;;5034326;28;20041;-69
2021/12/14 00:07:45;;;;;;;29.55;8.45;;;4.70;99.90;;;;;;5033374;28;20025;-67
2021/12/14 00:10:41;;;;;;;27.50;7.82;;;4.70;99.90;;;;;;5027382;28;20029;-68
2021/12/14 00:13:14;;;;;;;27.70;8.60;;;4.70;99.90;;;;;;5052109;28;20094;-71
2021/12/14 00:15:40;;;;;;;26.70;8.50;;;4.70;99.90;;;;;;5033884;28;20043;-69
2021/12/14 00:18:08;;;;;;;28.35;8.18;;;4.70;99.90;;;;;;5033378;28;20025;-70
2021/12/14 00:20:50;;;;;;;27.13;8.85;;;4.70;99.90;;;;;;5033662;28;20044;-69
2021/12/14 00:25:49;;;;;;;30.13;8.95;;;4.70;99.90;;;;;;5052167;28;20107;-68
2021/12/14 00:28:27;;;;;;;25.85;8.77;;;4.70;99.90;;;;;;5033076;28;20025;-67
2021/12/14 00:30:56;;;;;;;28.55;8.95;;;4.70;99.90;;;;;;5033819;28;20021;-68
2021/12/14 00:33:25;;;;;;;33.03;9.85;;;4.70;99.90;;;;;;5035073;28;20029;-69
2021/12/14 00:35:51;;;;;;;36.53;9.65;;;4.70;99.90;;;;;;5024920;28;20025;-67
2021/12/14 00:38:21;;;;;;;32.10;9.43;;;4.70;99.90;;;;;;5033420;28;20128;-68
2021/12/14 00:41:01;;;;;;;28.08;9.23;;;4.70;99.90;;;;;;5029847;28;20025;-67
2021/12/14 00:43:27;;;;;;;28.25;8.90;;;4.70;99.90;;;;;;5046811;28;20098;-68
2021/12/14 00:45:54;;;;;;;31.25;9.23;;;4.80;99.90;;;;;;5047226;28;20017;-68
2021/12/14 00:48:23;;;;;;;28.58;8.35;;;4.80;99.90;;;;;;5046311;28;20473;-67
2021/12/14 00:50:54;;;;;;;29.70;8.10;;;4.80;99.90;;;;;;5046697;28;20080;-70
2021/12/14 00:53:20;;;;;;;31.43;8.47;;;4.80;99.90;;;;;;5046866;28;20029;-67
2021/12/14 00:55:50;;;;;;;36.10;9.07;;;4.80;99.90;;;;;;5046691;28;20029;-67
2021/12/14 00:58:17;;;;;;;40.08;9.20;;;4.90;99.90;;;;;;5056247;28;20028;-68
2021/12/14 01:00:50;;;;;;;29.73;8.98;;;4.90;99.90;;;;;;5041387;28;20025;-69
2021/12/14 01:03:16;;;;;;;33.78;8.50;;;4.90;99.90;;;;;;5025255;28;20017;-67
2021/12/14 01:05:46;;;;;;;34.28;8.85;;;4.90;99.90;;;;;;5032466;28;20112;-67
2021/12/14 01:08:18;;;;;;;33.25;9.10;;;4.90;99.90;;;;;;5032368;28;20048;-67
2021/12/14 01:10:53;;;;;;;34.67;9.70;;;4.90;99.90;;;;;;5024853;28;20056;-67
2021/12/14 01:13:24;;;;;;;35.13;9.93;;;4.90;99.90;;;;;;5033035;28;20029;-68
2021/12/14 01:16:02;;;;;;;34.80;9.13;;;4.90;99.90;;;;;;5023463;28;20026;-68
2021/12/14 01:18:46;;;;;;;44.30;9.82;;;4.90;99.90;;;;;;5012629;28;20025;-67
2021/12/14 01:21:46;;;;;;;37.40;10.18;;;4.90;99.90;;;;;;5028078;28;20436;-69
2021/12/14 01:27:05;;;;;;;36.22;9.45;;;4.90;99.90;;;;;;5030633;28;20075;-68
2021/12/14 01:29:32;;;;;;;33.67;9.52;;;4.80;99.90;;;;;;5013430;28;20029;-68
2021/12/14 01:32:00;;;;;;;32.15;9.18;;;4.80;99.90;;;;;;5032825;28;20030;-70
2021/12/14 01:34:31;;;;;;;34.53;8.85;;;4.80;99.90;;;;;;5032906;28;20477;-67
2021/12/14 01:37:01;;;;;;;21.75;7.50;;;4.80;99.90;;;;;;5032680;28;20112;-68
2021/12/14 01:42:10;;;;;;;20.23;6.63;;;4.70;99.90;;;;;;5049210;28;20057;-68
2021/12/14 01:44:46;;;;;;;22.17;6.93;;;4.70;99.90;;;;;;5036346;28;20052;-67
2021/12/14 01:47:27;;;;;;;19.67;6.60;;;4.60;99.90;;;;;;5016639;28;20050;-69
2021/12/14 01:49:54;;;;;;;15.35;6.28;;;4.60;99.90;;;;;;5022683;28;20393;-67
2021/12/14 01:52:29;;;;;;;20.92;7.05;;;4.70;99.90;;;;;;5036520;28;20079;-67
2021/12/14 01:54:59;;;;;;;14.68;6.03;;;4.70;99.90;;;;;;5036600;28;20075;-67
2021/12/14 01:57:29;;;;;;;18.98;7.03;;;4.70;99.90;;;;;;5044426;28;20070;-70
2021/12/14 01:59:57;;;;;;;21.27;7.13;;;4.70;99.90;;;;;;5023979;28;20116;-68
2021/12/14 02:02:44;;;;;;;14.20;5.88;;;4.80;99.90;;;;;;5036442;28;20074;-68
2021/12/14 02:05:26;;;;;;;15.73;6.05;;;4.80;99.90;;;;;;5036547;28;20617;-69
2021/12/14 02:07:53;;;;;;;18.35;6.05;;;4.80;99.90;;;;;;5035740;28;20074;-67
2021/12/14 02:10:33;;;;;;;15.23;6.22;;;4.90;99.90;;;;;;5028759;28;20396;-68
2021/12/14 02:12:59;;;;;;;17.05;6.55;;;4.90;99.90;;;;;;5016850;28;20029;-69
2021/12/14 02:15:41;;;;;;;16.15;6.15;;;4.90;99.90;;;;;;5029815;28;20040;-69
2021/12/14 02:18:19;;;;;;;19.85;6.68;;;4.90;99.90;;;;;;5035793;28;20112;-68
2021/12/14 02:20:57;;;;;;;19.75;7.03;;;4.90;99.90;;;;;;5036131;28;20459;-68
2021/12/14 02:23:24;;;;;;;19.17;7.10;;;4.90;99.90;;;;;;5036368;28;20044;-70
2021/12/14 02:25:52;;;;;;;22.70;7.60;;;4.90;99.90;;;;;;5036141;28;20112;-68
2021/12/14 02:28:20;;;;;;;26.17;7.32;;;4.90;99.90;;;;;;5035477;28;20389;-67
2021/12/14 02:30:47;;;;;;;27.17;7.85;;;4.90;99.90;;;;;;5030316;28;20040;-69
2021/12/14 02:33:37;;;;;;;23.30;7.60;;;4.90;99.90;;;;;;5031049;28;20025;-67
2021/12/14 02:36:10;;;;;;;28.10;8.52;;;4.90;99.90;;;;;;5035076;28;20106;-68
2021/12/14 02:38:44;;;;;;;27.40;8.40;;;4.80;99.90;;;;;;5031815;28;20068;-68
2021/12/14 02:41:10;;;;;;;32.63;8.85;;;4.80;99.90;;;;;;5035950;28;20078;-69
2021/12/14 02:43:55;;;;;;;30.65;8.90;;;4.80;99.90;;;;;;5035800;28;20311;-68
2021/12/14 02:46:35;;;;;;;30.40;9.00;;;4.80;99.90;;;;;;5016095;28;20072;-68
2021/12/14 02:49:06;;;;;;;34.80;9.27;;;4.80;99.90;;;;;;5030781;28;20385;-67
2021/12/14 02:51:37;;;;;;;30.02;8.57;;;4.80;99.90;;;;;;5035640;28;20089;-67
2021/12/14 02:54:23;;;;;;;32.33;8.32;;;4.80;99.90;;;;;;5035672;28;20112;-67
2021/12/14 02:56:55;;;;;;;23.50;7.20;;;4.80;99.90;;;;;;5032289;28;20079;-68
2021/12/14 02:59:25;;;;;;;26.50;7.43;;;4.80;99.90;;;;;;5048741;28;20029;-67
2021/12/14 03:01:54;;;;;;;28.02;7.70;;;4.80;99.90;;;;;;5023618;28;20108;-67
2021/12/14 03:04:20;;;;;;;28.67;7.47;;;4.80;99.90;;;;;;5031468;28;20070;-70
2021/12/14 03:06:53;;;;;;;23.90;7.70;;;4.80;99.90;;;;;;5034653;28;20112;-67
2021/12/14 03:09:38;;;;;;;27.35;7.57;;;4.80;99.90;;;;;;5034405;28;20112;-67
2021/12/14 03:12:12;;;;;;;28.33;7.35;;;4.80;99.90;;;;;;5028616;28;20029;-66
2021/12/14 03:14:39;;;;;;;26.75;7.82;;;4.80;99.90;;;;;;5035203;28;20029;-67
2021/12/14 03:17:05;;;;;;;30.15;8.38;;;4.70;99.90;;;;;;5034422;28;20035;-68
2021/12/14 03:19:31;;;;;;;29.05;8.75;;;4.80;99.90;;;;;;5034973;28;20125;-68
2021/12/14 03:21:57;;;;;;;30.63;8.23;;;4.70;99.90;;;;;;5035208;28;20052;-70
2021/12/14 03:24:23;;;;;;;31.88;8.25;;;4.70;99.90;;;;;;5034905;28;20033;-68
2021/12/14 03:26:52;;;;;;;30.40;8.50;;;4.70;99.90;;;;;;5035120;28;20028;-70
2021/12/14 03:29:29;;;;;;;47.88;8.18;;;4.70;99.90;;;;;;5034351;28;20029;-67
2021/12/14 03:31:58;;;;;;;29.08;8.95;;;4.70;99.90;;;;;;5027253;28;20021;-66
2021/12/14 03:34:26;;;;;;;36.67;9.20;;;4.70;99.90;;;;;;5030894;28;20107;-68
2021/12/14 03:36:59;;;;;;;36.13;8.85;;;4.70;99.90;;;;;;5015091;28;20098;-67
2021/12/14 03:39:30;;;;;;;30.00;8.77;;;4.70;99.90;;;;;;5014899;28;20025;-68
2021/12/14 03:42:03;;;;;;;23.77;7.97;;;4.70;99.90;;;;;;5014945;28;20127;-68
2021/12/14 03:44:28;;;;;;;22.50;7.68;;;4.70;99.90;;;;;;5017983;28;20017;-68
2021/12/14 03:46:59;;;;;;;25.15;7.60;;;4.70;99.90;;;;;;5034491;28;20018;-68
2021/12/14 03:49:33;;;;;;;26.17;7.05;;;4.70;99.90;;;;;;5034074;28;20029;-68
2021/12/14 03:52:00;;;;;;;26.27;7.72;;;4.70;99.90;;;;;;5034536;28;20028;-67
2021/12/14 03:54:27;;;;;;;26.25;7.80;;;4.70;99.90;;;;;;5034429;28;20456;-69
2021/12/14 03:56:53;;;;;;;22.88;7.43;;;4.70;99.90;;;;;;5031277;28;20424;-68
2021/12/14 03:59:21;;;;;;;29.10;8.05;;;4.70;99.90;;;;;;5037287;28;20099;-67
2021/12/14 04:01:48;;;;;;;24.58;8.20;;;4.70;99.90;;;;;;5022692;28;20026;-67
2021/12/14 04:04:18;;;;;;;28.10;7.82;;;4.70;99.90;;;;;;5014559;28;20390;-67
2021/12/14 04:06:48;;;;;;;22.77;7.63;;;4.70;99.90;;;;;;5014901;28;20045;-67
2021/12/14 04:09:16;;;;;;;30.63;7.75;;;4.70;99.90;;;;;;5028293;28;20044;-67
2021/12/14 04:11:42;;;;;;;26.88;7.95;;;4.70;99.90;;;;;;5034271;28;20063;-68
2021/12/14 04:14:09;;;;;;;35.85;9.27;;;4.80;99.90;;;;;;5034464;28;20404;-68
2021/12/14 04:16:38;;;;;;;30.70;7.72;;;4.70;99.90;;;;;;5033847;28;20570;-68
2021/12/14 04:19:07;;;;;;;31.60;8.48;;;4.70;99.90;;;;;;5033351;28;20535;-69
2021/12/14 04:21:38;;;;;;;28.13;8.10;;;4.70;99.90;;;;;;5033962;28;20029;-68
2021/12/14 04:24:05;;;;;;;37.22;8.40;;;4.70;99.90;;;;;;5047263;22;20040;-70
2021/12/14 04:26:31;;;;;;;33.97;8.70;;;4.70;99.90;;;;;;5025891;28;20032;-71
2021/12/14 04:28:59;;;;;;;47.25;9.30;;;4.70;99.90;;;;;;5029322;28;20017;-71
2021/12/14 04:31:25;;;;;;;55.47;9.27;;;4.60;99.90;;;;;;5014171;28;20021;-71
2021/12/14 04:33:52;;;;;;;41.17;9.18;;;4.60;99.90;;;;;;5014279;28;20465;-71
2021/12/14 04:36:24;;;;;;;64.70;9.75;;;4.60;99.90;;;;;;5018335;28;20017;-71
2021/12/14 04:38:59;;;;;;;;;;;4.50;99.90;;;;;;5033803;28;20021;-70
2021/12/14 04:52:43;;;;;;;53.10;9.10;;;4.50;99.90;;;;;;5051753;28;20059;-71
2021/12/14 04:55:10;;;;;;;39.97;8.50;;;4.40;99.90;;;;;;5025373;28;20542;-71
2021/12/14 04:57:44;;;;;;;106.07;9.52;;;4.50;99.90;;;;;;5024732;28;20040;-70
2021/12/14 05:00:32;;;;;;;37.80;9.35;;;4.50;99.90;;;;;;5027683;28;20021;-71
2021/12/14 05:03:01;;;;;;;72.18;8.80;;;4.50;99.90;;;;;;5033000;28;20021;-70
2021/12/14 05:05:33;;;;;;;35.17;9.52;;;4.50;99.90;;;;;;5033411;28;20078;-70
2021/12/14 05:10:55;;;;;;;66.97;8.93;;;4.50;99.90;;;;;;5051314;28;20422;-70
2021/12/14 05:13:29;;;;;;;75.28;8.77;;;4.50;99.90;;;;;;5032846;28;20060;-70
2021/12/14 05:15:55;;;;;;;49.90;9.18;;;4.50;99.90;;;;;;5033204;28;20059;-70
2021/12/14 05:18:22;;;;;;;35.47;9.25;;;4.50;99.90;;;;;;5032523;28;20032;-70
2021/12/14 05:20:49;;;;;;;104.95;9.70;;;4.50;99.90;;;;;;5033102;28;20053;-71
2021/12/14 05:23:34;;;;;;;98.18;9.23;;;4.50;99.90;;;;;;5032967;28;20159;-70
2021/12/14 05:26:03;;;;;;;82.53;9.20;;;4.50;99.90;;;;;;5018419;28;20033;-70
2021/12/14 05:28:30;;;;;;;78.82;10.25;;;4.50;99.90;;;;;;5012961;28;20029;-72
2021/12/14 05:30:58;;;;;;;129.95;10.68;;;4.50;99.90;;;;;;5013492;28;20043;-71
2021/12/14 05:33:35;;;;;;;77.70;9.70;;;4.40;99.90;;;;;;5013394;28;20029;-71
2021/12/14 05:36:07;;;;;;;80.25;9.27;;;4.50;99.90;;;;;;5020474;28;20025;-71
2021/12/14 05:38:51;;;;;;;65.80;9.32;;;4.40;99.90;;;;;;5032695;28;20029;-71
2021/12/14 05:44:22;;;;;;;37.85;9.10;;;4.40;99.90;;;;;;5051551;28;20039;-71
2021/12/14 05:46:55;;;;;;;66.47;8.95;;;4.40;99.90;;;;;;5032699;28;20025;-70
2021/12/14 05:49:27;;;;;;;34.67;8.43;;;4.40;99.90;;;;;;5032741;28;20071;-72
2021/12/14 05:51:55;;;;;;;42.00;8.32;;;4.40;99.90;;;;;;5032797;28;20029;-70
2021/12/14 05:54:28;;;;;;;34.38;7.90;;;4.40;99.90;;;;;;5032915;28;20029;-71
2021/12/14 05:56:55;;;;;;;41.88;9.25;;;4.40;99.90;;;;;;5044743;28;20033;-71
2021/12/14 05:59:29;;;;;;;37.90;7.97;;;4.40;99.90;;;;;;5024900;28;20401;-71
2021/12/14 06:01:56;;;;;;;32.28;7.65;;;4.40;99.90;;;;;;5027598;28;20120;-71
2021/12/14 06:04:26;;;;;;;57.33;8.73;;;4.40;99.90;;;;;;5033463;28;20052;-71
2021/12/14 06:06:54;;;;;;;31.20;8.80;;;4.40;99.90;;;;;;5033378;28;20029;-71
2021/12/14 06:09:31;;;;;;;58.45;8.48;;;4.40;99.90;;;;;;5032984;28;20384;-71
2021/12/14 06:12:08;;;;;;;65.53;8.32;;;4.40;99.90;;;;;;5033387;28;20067;-72
2021/12/14 06:14:41;;;;;;;50.45;9.43;;;4.40;99.90;;;;;;5033420;28;20029;-71
2021/12/14 06:17:07;;;;;;;35.15;8.25;;;4.40;99.90;;;;;;5032979;28;20028;-71
2021/12/14 06:19:36;;;;;;;32.90;8.80;;;4.30;99.90;;;;;;5033185;28;20078;-71
2021/12/14 06:22:08;;;;;;;41.72;9.05;;;4.40;99.90;;;;;;5033491;28;20401;-71
2021/12/14 06:24:37;;;;;;;41.13;7.78;;;4.40;99.90;;;;;;5022612;28;20022;-71
2021/12/14 06:27:05;;;;;;;54.55;7.93;;;4.40;99.90;;;;;;5035932;28;20029;-71
2021/12/14 06:29:40;;;;;;;66.97;8.32;;;4.40;99.90;;;;;;5054886;28;20029;-71
2021/12/14 06:32:13;;;;;;;88.47;8.38;;;4.30;99.90;;;;;;5036715;28;20110;-71
2021/12/14 06:35:06;;;;;;;56.45;8.48;;;4.30;99.90;;;;;;5036956;28;20060;-70
2021/12/14 06:40:53;;;;;;;41.50;7.65;;;4.30;99.90;;;;;;5049298;28;20021;-70
2021/12/14 06:43:37;;;;;;;40.67;7.53;;;4.20;99.90;;;;;;5006355;28;20080;-70
2021/12/14 06:46:14;;;;;;;35.80;7.88;;;4.30;99.90;;;;;;5036502;28;20063;-71
2021/12/14 06:48:48;;;;;;;37.53;8.23;;;4.20;99.90;;;;;;5036030;28;20083;-70
2021/12/14 06:51:22;;;;;;;42.20;8.55;;;4.20;99.90;;;;;;5036349;28;20056;-71
2021/12/14 06:53:54;;;;;;;36.65;7.45;;;4.20;99.90;;;;;;5028100;28;20480;-71
2021/12/14 06:56:26;;;;;;;35.28;7.95;;;4.20;99.90;;;;;;5033498;28;20033;-70
2021/12/14 06:58:53;;;;;;;;;;;4.20;99.90;;;;;;5036257;28;20595;-71
2021/12/14 07:01:32;;;;;;;30.30;6.88;;;4.20;99.90;;;;;;5035923;28;20046;-71
2021/12/14 07:04:02;;;;;;;31.02;7.32;;;4.20;99.90;;;;;;5045202;28;20116;-67
2021/12/14 07:06:53;;;;;;;37.70;7.80;;;4.10;99.90;;;;;;5036130;28;20025;-67
2021/12/14 07:09:22;;;;;;;43.40;7.65;;;4.10;99.90;;;;;;5034501;28;20028;-72
2021/12/14 07:11:59;;;;;;;23.90;7.80;;;4.10;99.90;;;;;;5036026;28;20415;-72
2021/12/14 07:14:28;;;;;;;31.67;7.30;;;4.10;99.90;;;;;;5035792;28;20048;-73
2021/12/14 07:16:56;;;;;;;30.25;7.57;;;4.00;99.90;;;;;;5035778;28;20377;-71
2021/12/14 07:19:52;;;;;;;30.10;7.78;;;4.00;99.90;;;;;;5035159;28;20067;-71
2021/12/14 07:22:30;;;;;;;26.02;7.38;;;4.10;99.90;;;;;;5035545;28;20059;-71
2021/12/14 07:25:04;;;;;;;35.25;7.43;;;4.10;99.90;;;;;;5020964;28;20024;-71
2021/12/14 07:27:38;;;;;;;34.63;8.50;;;4.00;99.90;;;;;;5053166;28;20358;-71
2021/12/14 07:30:28;;;;;;;27.17;7.43;;;4.00;99.90;;;;;;5034900;28;20033;-71
2021/12/14 07:32:58;;;;;;;26.88;7.20;;;4.00;99.90;;;;;;5035827;28;20021;-71
2021/12/14 07:35:56;;;;;;;39.15;8.38;;;4.00;99.90;;;;;;5051992;28;20350;-72
2021/12/14 07:38:30;;;;;;;35.53;9.32;;;4.00;99.90;;;;;;5026231;28;20489;-72
2021/12/14 07:41:05;;;;;;;24.17;8.40;;;4.00;99.90;;;;;;5035335;28;20060;-71
2021/12/14 07:43:37;;;;;;;24.63;8.48;;;4.00;99.90;;;;;;5035266;28;20524;-71
2021/12/14 07:46:15;;;;;;;26.05;8.02;;;4.00;99.90;;;;;;5035033;28;20032;-70
2021/12/14 07:48:52;;;;;;;25.85;7.72;;;4.00;99.90;;;;;;5034235;28;20489;-71
2021/12/14 07:51:20;;;;;;;29.30;8.52;;;4.00;99.90;;;;;;5040781;28;20068;-71
2021/12/14 07:53:53;;;;;;;30.13;9.88;;;4.00;99.90;;;;;;5026627;28;20510;-71
2021/12/14 07:56:27;;;;;;;28.60;9.02;;;4.00;99.90;;;;;;5015424;28;20501;-71
2021/12/14 07:58:54;;;;;;;28.90;8.73;;;4.00;99.90;;;;;;5024824;28;20032;-71
2021/12/14 08:01:20;;;;;;;31.00;9.43;;;4.00;99.90;;;;;;5035025;28;20439;-71
2021/12/14 08:03:46;;;;;;;29.73;8.38;;;4.00;99.90;;;;;;5034071;28;20055;-71
2021/12/14 08:06:15;;;;;;;29.65;8.57;;;4.10;99.90;;;;;;5034978;28;20673;-71
2021/12/14 08:08:48;;;;;;;29.27;8.18;;;4.10;99.90;;;;;;5033600;28;20021;-71
2021/12/14 08:14:17;;;;;;;23.00;8.00;;;4.10;99.90;;;;;;5032729;28;20539;-72
2021/12/14 08:17:00;;;;;;;23.08;7.68;;;4.10;99.90;;;;;;5027410;28;20021;-71
2021/12/14 08:19:34;;;;;;;22.65;7.43;;;4.10;99.90;;;;;;5034730;28;20075;-71
2021/12/14 08:22:09;;;;;;;24.80;7.30;;;4.10;99.90;;;;;;5034341;28;20025;-71
2021/12/14 08:24:37;;;;;;;26.67;8.55;;;4.10;99.90;;;;;;5019068;28;20156;-71
2021/12/14 08:27:05;;;;;;;30.25;10.38;;;4.10;99.90;;;;;;5034372;28;20585;-71
2021/12/14 08:29:34;;;;;;;20.13;7.82;;;4.10;99.90;;;;;;5033900;28;20032;-71
2021/12/14 08:32:14;;;;;;;24.98;8.40;;;4.10;99.90;;;;;;5034582;28;20028;-71
2021/12/14 08:34:46;;;;;;;21.35;7.32;;;4.10;99.90;;;;;;5032892;28;20029;-71
2021/12/14 08:37:14;;;;;;;25.48;8.98;;;4.20;99.90;;;;;;5030250;28;20118;-71
2021/12/14 08:39:50;;;;;;;18.92;7.45;;;4.20;99.90;;;;;;5034150;28;20036;-71
2021/12/14 08:42:29;;;;;;;21.30;7.43;;;4.20;99.90;;;;;;5034174;28;20025;-71
2021/12/14 08:44:58;;;;;;;19.80;7.43;;;4.20;99.90;;;;;;5033742;28;20025;-71
2021/12/14 08:47:34;;;;;;;19.23;8.23;;;4.30;99.90;;;;;;5033372;28;20104;-71
2021/12/14 08:50:07;;;;;;;21.52;8.45;;;4.30;99.90;;;;;;5033843;28;20039;-72
2021/12/14 08:52:33;;;;;;;22.10;8.75;;;4.30;99.90;;;;;;5032695;28;20025;-72
2021/12/14 08:55:03;;;;;;;25.98;8.88;;;4.30;99.90;;;;;;5025834;28;20017;-71
2021/12/14 08:57:31;;;;;;;20.98;9.20;;;4.30;99.90;;;;;;5030949;28;20370;-71
2021/12/14 09:00:02;;;;;;;26.88;9.05;;;4.40;99.90;;;;;;5022502;28;20113;-72
2021/12/14 09:02:31;;;;;;;31.38;11.52;;;4.40;99.90;;;;;;5032524;28;20024;-72
2021/12/14 09:05:06;;;;;;;25.88;9.15;;;4.40;99.90;;;;;;5034147;28;20017;-72
2021/12/14 09:07:32;;;;;;;21.55;8.60;;;4.40;99.90;;;;;;5033247;28;20044;-70
2021/12/14 09:10:02;;;;;;;24.83;8.82;;;4.50;99.90;;;;;;5034194;28;20033;-70
2021/12/14 09:12:34;;;;;;;23.35;9.20;;;4.50;99.90;;;;;;5033248;28;20025;-72
2021/12/14 09:15:09;;;;;;;;;;;4.60;99.90;;;;;;5023895;28;20505;-71
2021/12/14 09:17:35;;;;;;;28.23;8.10;;;4.60;99.90;;;;;;5021900;28;20029;-72
2021/12/14 09:20:07;;;;;;;32.28;8.65;;;4.60;99.90;;;;;;5028648;28;20437;-71
2021/12/14 09:22:38;;;;;;;25.23;8.88;;;4.60;99.90;;;;;;5021557;28;20535;-72
2021/12/14 09:25:05;;;;;;;32.83;8.63;;;4.60;99.90;;;;;;5021988;28;20025;-72
2021/12/14 09:27:34;;;;;;;33.97;9.63;;;4.60;99.90;;;;;;5013330;28;20021;-71
2021/12/14 09:30:01;;;;;;;36.97;8.48;;;4.60;99.90;;;;;;5019629;28;20036;-72
2021/12/14 09:32:28;;;;;;;29.40;9.07;;;4.60;99.90;;;;;;5031182;28;20021;-71
2021/12/14 09:34:59;;;;;;;26.20;8.75;;;4.60;99.90;;;;;;5029007;28;20021;-72
2021/12/14 09:37:27;;;;;;;29.27;8.82;;;4.60;99.90;;;;;;5028902;28;20035;-71
2021/12/14 09:39:59;;;;;;;32.63;8.27;;;4.60;99.90;;;;;;5033103;28;20037;-72
2021/12/14 09:42:32;;;;;;;32.70;8.30;;;4.60;99.90;;;;;;5033315;28;20028;-72
2021/12/14 09:45:02;;;;;;;25.30;8.40;;;4.60;99.90;;;;;;5032213;28;20059;-70
2021/12/14 09:47:31;;;;;;;32.80;7.68;;;4.70;99.90;;;;;;5032755;28;20017;-72
2021/12/14 09:49:59;;;;;;;34.22;9.27;;;4.70;99.90;;;;;;5033389;28;20389;-72
2021/12/14 09:52:33;;;;;;;35.72;8.82;;;4.70;99.90;;;;;;5033292;28;20098;-72
2021/12/14 09:55:02;;;;;;;32.28;8.15;;;4.70;99.90;;;;;;5026065;28;20116;-72
2021/12/14 09:57:34;;;;;;;33.55;9.02;;;4.70;99.90;;;;;;5032563;28;20027;-71
2021/12/14 10:00:07;;;;;;;24.15;8.40;;;4.70;99.90;;;;;;5022935;28;20055;-72
2021/12/14 10:02:38;;;;;;;39.25;7.80;;;4.70;99.90;;;;;;5034592;28;20033;-72
2021/12/14 10:05:13;;;;;;;28.83;8.20;;;4.80;99.90;;;;;;5036692;28;20021;-72
2021/12/14 10:07:39;;;;;;;23.85;8.02;;;4.80;99.90;;;;;;5033200;28;20032;-72
2021/12/14 10:10:12;;;;;;;24.45;6.95;;;4.80;99.90;;;;;;5017219;28;20025;-72
2021/12/14 10:12:50;;;;;;;24.40;7.57;;;4.80;99.90;;;;;;5035111;28;20031;-72
2021/12/14 10:15:19;;;;;;;38.20;7.80;;;4.90;99.90;;;;;;5037001;28;20124;-72
2021/12/14 10:17:45;;;;;;;31.63;8.18;;;4.90;99.90;;;;;;5036645;28;20040;-72
2021/12/14 10:20:26;;;;;;;20.20;8.13;;;4.80;99.90;;;;;;5029876;28;20026;-72
2021/12/14 10:22:52;;;;;;;47.80;21.50;;;4.90;99.90;;;;;;5033515;28;20451;-72
2021/12/14 10:25:21;;;;;;;23.95;9.88;;;4.90;99.90;;;;;;5028433;28;20013;-72
2021/12/14 10:27:47;;;;;;;23.75;9.07;;;5.00;99.90;;;;;;5036199;28;20049;-72
2021/12/14 10:30:28;;;;;;;23.35;7.88;;;5.10;99.90;;;;;;5036996;28;20043;-72
2021/12/14 10:32:54;;;;;;;26.58;9.93;;;5.10;99.90;;;;;;5036944;28;20063;-72
2021/12/14 10:35:25;;;;;;;24.13;8.57;;;5.10;99.90;;;;;;5036788;28;20029;-72
2021/12/14 10:43:26;;;;;;;26.88;7.40;;;5.10;99.90;;;;;;5053677;28;20427;-72
2021/12/14 10:45:58;;;;;;;32.53;7.28;;;5.10;99.90;;;;;;5036630;28;20021;-72
2021/12/14 10:48:30;;;;;;;33.88;7.15;;;5.10;99.90;;;;;;5035832;28;20056;-72
2021/12/14 10:50:58;;;;;;;36.50;7.15;;;5.10;99.90;;;;;;5036532;28;20033;-72
2021/12/14 10:53:25;;;;;;;18.63;7.00;;;5.20;99.90;;;;;;5028747;28;20018;-71
2021/12/14 10:56:18;;;;;;;21.40;7.63;;;5.20;99.90;;;;;;5042616;28;20029;-71
2021/12/14 10:58:51;;;;;;;16.17;7.57;;;5.20;99.90;;;;;;5023261;28;20037;-72
2021/12/14 11:01:20;;;;;;;20.45;8.43;;;5.20;99.90;;;;;;5025986;28;20580;-71
2021/12/14 11:03:51;;;;;;;24.30;7.43;;;5.30;99.90;;;;;;5017533;28;20033;-71
2021/12/14 11:06:27;;;;;;;14.32;6.35;;;5.40;99.90;;;;;;5022187;28;20477;-72
2021/12/14 11:11:45;;;;;;;26.38;8.68;;;5.50;99.90;;;;;;5046544;28;20443;-72
2021/12/14 11:14:18;;;;;;;21.63;7.82;;;5.50;99.90;;;;;;5047780;28;20108;-72
2021/12/14 11:19:40;;;;;;;19.80;8.45;;;5.50;99.90;;;;;;5050987;28;20168;-72
2021/12/14 11:22:20;;;;;;;22.60;10.57;;;5.50;99.90;;;;;;5037026;28;20071;-72
2021/12/14 11:25:08;;;;;;;20.85;9.23;;;5.60;99.90;;;;;;5032184;28;20036;-72
2021/12/14 11:27:39;;;;;;;24.63;10.02;;;5.60;99.90;;;;;;5027490;28;20393;-72
2021/12/14 11:30:23;;;;;;;26.75;9.70;;;5.60;99.90;;;;;;5045491;28;20058;-72
2021/12/14 11:33:04;;;;;;;25.70;10.32;;;5.70;99.90;;;;;;5035387;28;20028;-72
2021/12/14 11:35:37;;;;;;;22.92;9.10;;;5.70;99.90;;;;;;5051021;28;20040;-72
2021/12/14 11:38:10;;;;;;;27.60;9.20;;;5.80;99.90;;;;;;5034584;28;20048;-72
2021/12/14 11:40:36;;;;;;;27.80;9.80;;;5.80;99.90;;;;;;5035257;28;20041;-72
2021/12/14 11:43:24;;;;;;;28.75;10.18;;;5.80;99.90;;;;;;5035536;28;20037;-71
2021/12/14 11:45:52;;;;;;;26.33;9.38;;;5.80;99.90;;;;;;5035083;28;20036;-71
2021/12/14 11:48:34;;;;;;;26.13;9.57;;;5.80;99.90;;;;;;5034415;28;20108;-72
2021/12/14 11:51:04;;;;;;;33.80;11.57;;;5.80;99.90;;;;;;5043470;28;20032;-71
2021/12/14 11:53:30;;;;;;;30.90;12.45;;;5.80;99.90;;;;;;5052647;28;20163;-71
2021/12/14 11:55:58;;;;;;;34.42;11.52;;;5.80;99.90;;;;;;5026303;28;20108;-72
2021/12/14 11:58:37;;;;;;;27.00;11.30;;;5.90;99.90;;;;;;5034530;28;20476;-71
2021/12/14 12:01:16;;;;;;;29.17;11.13;;;5.90;99.90;;;;;;5034597;28;20032;-72
2021/12/14 12:04:21;;;;;;;27.65;11.40;;;5.90;99.90;;;;;;5035050;28;20096;-72
2021/12/14 12:09:28;;;;;;;29.88;11.07;;;6.00;99.90;;;;;;4952507;28;20020;-71
2021/12/14 12:09:52;;;;;;;29.67;11.50;;;6.00;99.90;;;;;;4971158;28;20129;-72
2021/12/14 12:12:24;;;;;;;24.05;9.73;;;6.10;99.90;;;;;;5013094;28;20155;-72
2021/12/14 12:14:52;;;;;;;24.48;10.27;;;6.20;99.90;;;;;;5033913;28;20393;-72
2021/12/14 12:17:27;;;;;;;24.30;10.57;;;6.30;99.90;;;;;;5033138;28;20043;-72
2021/12/14 12:20:08;;;;;;;24.35;10.52;;;6.30;99.90;;;;;;5023080;28;20075;-72
2021/12/14 12:22:41;;;;;;;24.88;10.40;;;6.30;99.90;;;;;;5022239;28;20473;-72
2021/12/14 12:25:21;;;;;;;23.70;10.73;;;6.40;99.90;;;;;;5029277;28;20025;-71
2021/12/14 12:27:52;;;;;;;25.60;9.98;;;6.50;99.90;;;;;;5036871;28;20567;-72
2021/12/14 12:30:33;;;;;;;29.25;12.05;;;6.50;99.90;;;;;;5029145;28;20124;-71
2021/12/14 12:33:06;;;;;;;22.73;11.07;;;6.50;99.90;;;;;;5034582;28;20029;-72
2021/12/14 12:35:56;;;;;;;25.33;11.23;;;6.50;99.90;;;;;;5034413;28;20028;-71
2021/12/14 12:38:37;;;;;;;23.88;11.63;;;6.50;99.90;;;;;;5033816;28;20098;-72
2021/12/14 12:41:32;;;;;;;21.50;10.43;;;6.50;99.90;;;;;;5033787;28;20021;-72
2021/12/14 12:44:05;;;;;;;25.58;10.90;;;6.50;99.90;;;;;;5034602;28;20021;-72
2021/12/14 12:46:37;;;;;;;27.42;11.73;;;6.50;99.90;;;;;;5041808;28;20020;-71
2021/12/14 12:49:14;;;;;;;26.88;11.07;;;6.50;99.90;;;;;;5045776;28;20025;-72
2021/12/14 12:51:43;;;;;;;21.85;10.23;;;6.50;99.90;;;;;;5036981;28;20041;-71
2021/12/14 12:54:19;;;;;;;23.00;10.35;;;6.50;99.90;;;;;;5020666;28;20053;-72
2021/12/14 12:56:51;;;;;;;21.88;10.85;;;6.50;99.90;;;;;;5045818;28;20392;-72
2021/12/14 12:59:37;;;;;;;20.63;10.60;;;6.50;99.90;;;;;;5021331;28;20060;-72
2021/12/14 13:02:33;;;;;;;20.85;10.15;;;6.50;99.90;;;;;;5011096;28;20383;-72
2021/12/14 13:05:14;;;;;;;24.83;11.15;;;6.50;99.90;;;;;;5011816;28;20029;-71
2021/12/14 13:07:46;;;;;;;23.50;9.82;;;6.40;99.90;;;;;;5030460;28;20021;-71
2021/12/14 13:10:34;;;;;;;23.08;11.02;;;6.40;99.90;;;;;;5027904;28;20033;-71
2021/12/14 13:13:07;;;;;;;46.35;23.63;;;6.40;99.90;;;;;;5048263;28;20549;-71
2021/12/14 13:15:47;;;;;;;27.95;13.25;;;6.40;99.90;;;;;;5027565;28;20036;-71
2021/12/14 13:18:20;;;;;;;28.67;12.25;;;6.40;99.90;;;;;;5032857;28;20048;-71
2021/12/14 13:20:50;;;;;;;36.78;14.77;;;6.40;99.90;;;;;;5033415;28;20557;-71
2021/12/14 13:23:22;;;;;;;31.75;13.82;;;6.40;99.90;;;;;;5033566;28;20082;-72
2021/12/14 13:25:48;;;;;;;32.30;12.93;;;6.40;99.90;;;;;;5033474;28;20025;-72
2021/12/14 13:28:15;;;;;;;33.05;13.48;;;6.40;99.90;;;;;;5033032;28;20116;-72
2021/12/14 13:30:42;;;;;;;110.68;53.47;;;6.40;99.90;;;;;;5041479;28;20403;-72
2021/12/14 13:33:29;;;;;;;35.55;16.05;;;6.40;99.90;;;;;;5047408;28;20029;-72
2021/12/14 13:35:55;;;;;;;36.55;15.13;;;6.40;99.90;;;;;;5037937;28;20039;-72
2021/12/14 13:38:21;;;;;;;36.00;15.30;;;6.40;99.90;;;;;;5032433;28;20021;-72
2021/12/14 13:40:48;;;;;;;42.25;15.55;;;6.40;99.90;;;;;;5033328;28;20028;-72
2021/12/14 13:43:16;;;;;;;35.72;14.88;;;6.40;99.90;;;;;;5033371;28;20025;-72
2021/12/14 13:45:52;;;;;;;41.92;14.98;;;6.40;99.90;;;;;;5033489;28;20029;-72
2021/12/14 13:48:23;;;;;;;41.03;14.75;;;6.40;99.90;;;;;;5032306;28;20025;-72
2021/12/14 13:50:52;;;;;;;39.95;14.45;;;6.40;99.90;;;;;;5033151;28;20025;-72
2021/12/14 13:53:18;;;;;;;57.47;15.93;;;6.40;99.90;;;;;;5033324;28;20032;-72
2021/12/14 13:55:52;;;;;;;47.47;16.27;;;6.40;99.90;;;;;;5032852;28;20029;-72